sensor_id;sensor_type;location;lat;lon;timestamp;temperature;humidity
52381;DHT22;38310;52.796;6.942;2022-10-13T00:01:18;9.00;99.90
52381;DHT22;38310;52.796;6.942;2022-10-13T00:03:45;9.00;99.90
52381;DHT22;38310;52.796;6.942;2022-10-13T00:06:12;9.00;99.90
52381;DHT22;38310;52.796;6.942;2022-10-13T00:08:39;9.00;99.90
52381;DHT22;38310;52.796;6.942;2022-10-13T00:11:24;9.00;99.90
52381;DHT22;38310;52.796;6.942;2022-10-13T00:13:50;8.90;99.90
52381;DHT22;38310;52.796;6.942;2022-10-13T00:16:19;8.90;99.90
52381;DHT22;38310;52.796;6.942;2022-10-13T00:18:45;8.90;99.90
52381;DHT22;38310;52.796;6.942;2022-10-13T00:21:15;8.90;99.90
52381;DHT22;38310;52.796;6.942;2022-10-13T00:23:41;8.90;99.90
52381;DHT22;38310;52.796;6.942;2022-10-13T00:26:10;8.90;99.90
52381;DHT22;38310;52.796;6.942;2022-10-13T00:28:37;8.90;99.90
52381;DHT22;38310;52.796;6.942;2022-10-13T00:31:03;8.80;99.90
52381;DHT22;38310;52.796;6.942;2022-10-13T00:33:29;7.90;99.90
52381;DHT22;38310;52.796;6.942;2022-10-13T00:35:54;8.90;99.90
52381;DHT22;38310;52.796;6.942;2022-10-13T00:38:21;8.90;99.90
52381;DHT22;38310;52.796;6.942;2022-10-13T00:40:54;8.80;99.90
52381;DHT22;38310;52.796;6.942;2022-10-13T00:43:46;8.80;99.90
52381;DHT22;38310;52.796;6.942;2022-10-13T00:46:13;8.80;99.90
52381;DHT22;38310;52.796;6.942;2022-10-13T00:48:39;8.80;99.90
52381;DHT22;38310;52.796;6.942;2022-10-13T00:51:07;8.80;99.90
52381;DHT22;38310;52.796;6.942;2022-10-13T00:53:35;8.90;99.90
52381;DHT22;38310;52.796;6.942;2022-10-13T00:56:07;8.90;99.90
52381;DHT22;38310;52.796;6.942;2022-10-13T00:58:35;8.90;99.90
52381;DHT22;38310;52.796;6.942;2022-10-13T01:01:03;8.90;99.90
52381;DHT22;38310;52.796;6.942;2022-10-13T01:03:29;8.90;99.90
52381;DHT22;38310;52.796;6.942;2022-10-13T01:05:58;8.90;99.90
52381;DHT22;38310;52.796;6.942;2022-10-13T01:08:25;8.90;99.90
52381;DHT22;38310;52.796;6.942;2022-10-13T01:13:56;8.90;99.90
52381;DHT22;38310;52.796;6.942;2022-10-13T01:25:02;9.00;99.90
52381;DHT22;38310;52.796;6.942;2022-10-13T01:30:20;9.00;99.90
52381;DHT22;38310;52.796;6.942;2022-10-13T01:33:08;9.00;99.90
52381;DHT22;38310;52.796;6.942;2022-10-13T01:38:52;9.00;99.90
52381;DHT22;38310;52.796;6.942;2022-10-13T01:41:43;9.00;99.90
52381;DHT22;38310;52.796;6.942;2022-10-13T01:44:35;8.90;99.90
52381;DHT22;38310;52.796;6.942;2022-10-13T01:47:04;8.90;99.90
52381;DHT22;38310;52.796;6.942;2022-10-13T01:49:33;8.90;99.90
52381;DHT22;38310;52.796;6.942;2022-10-13T01:52:09;8.90;99.90
52381;DHT22;38310;52.796;6.942;2022-10-13T01:54:37;8.90;99.90
52381;DHT22;38310;52.796;6.942;2022-10-13T01:57:03;8.90;99.90
52381;DHT22;38310;52.796;6.942;2022-10-13T01:59:31;8.90;99.90
52381;DHT22;38310;52.796;6.942;2022-10-13T02:02:14;8.90;99.90
52381;DHT22;38310;52.796;6.942;2022-10-13T02:05:00;8.80;99.90
52381;DHT22;38310;52.796;6.942;2022-10-13T02:07:45;9.00;99.90
52381;DHT22;38310;52.796;6.942;2022-10-13T02:10:35;8.80;99.90
52381;DHT22;38310;52.796;6.942;2022-10-13T02:13:05;8.80;99.90
52381;DHT22;38310;52.796;6.942;2022-10-13T02:15:38;8.90;99.90
52381;DHT22;38310;52.796;6.942;2022-10-13T02:18:05;8.80;99.90
52381;DHT22;38310;52.796;6.942;2022-10-13T02:20:31;8.80;99.90
52381;DHT22;38310;52.796;6.942;2022-10-13T02:23:02;8.80;99.90
52381;DHT22;38310;52.796;6.942;2022-10-13T02:25:29;9.10;99.90
52381;DHT22;38310;52.796;6.942;2022-10-13T02:27:58;8.90;99.90
52381;DHT22;38310;52.796;6.942;2022-10-13T02:30:27;8.90;99.90
52381;DHT22;38310;52.796;6.942;2022-10-13T02:32:53;9.00;99.90
52381;DHT22;38310;52.796;6.942;2022-10-13T02:35:19;8.90;99.90
52381;DHT22;38310;52.796;6.942;2022-10-13T02:37:45;8.90;99.90
52381;DHT22;38310;52.796;6.942;2022-10-13T02:40:12;8.80;99.90
52381;DHT22;38310;52.796;6.942;2022-10-13T02:42:38;8.90;99.90
52381;DHT22;38310;52.796;6.942;2022-10-13T02:45:04;8.90;99.90
52381;DHT22;38310;52.796;6.942;2022-10-13T02:47:30;8.90;99.90
52381;DHT22;38310;52.796;6.942;2022-10-13T02:49:56;8.90;99.90
52381;DHT22;38310;52.796;6.942;2022-10-13T02:52:22;8.90;99.90
52381;DHT22;38310;52.796;6.942;2022-10-13T02:54:47;9.20;99.90
52381;DHT22;38310;52.796;6.942;2022-10-13T02:57:13;8.90;99.90
52381;DHT22;38310;52.796;6.942;2022-10-13T02:59:39;8.80;99.90
52381;DHT22;38310;52.796;6.942;2022-10-13T03:02:05;8.80;99.90
52381;DHT22;38310;52.796;6.942;2022-10-13T03:04:30;8.80;99.90
52381;DHT22;38310;52.796;6.942;2022-10-13T03:06:56;8.90;99.90
52381;DHT22;38310;52.796;6.942;2022-10-13T03:09:22;8.90;99.90
52381;DHT22;38310;52.796;6.942;2022-10-13T03:11:47;8.90;99.90
52381;DHT22;38310;52.796;6.942;2022-10-13T03:14:13;9.70;99.90
52381;DHT22;38310;52.796;6.942;2022-10-13T03:16:39;9.00;99.90
52381;DHT22;38310;52.796;6.942;2022-10-13T03:19:05;9.00;99.90
52381;DHT22;38310;52.796;6.942;2022-10-13T03:21:30;9.00;99.90
52381;DHT22;38310;52.796;6.942;2022-10-13T03:23:56;9.00;99.90
52381;DHT22;38310;52.796;6.942;2022-10-13T03:26:22;9.10;99.90
52381;DHT22;38310;52.796;6.942;2022-10-13T03:28:51;9.10;99.90
52381;DHT22;38310;52.796;6.942;2022-10-13T03:31:17;9.10;99.90
52381;DHT22;38310;52.796;6.942;2022-10-13T03:33:44;9.10;99.90
52381;DHT22;38310;52.796;6.942;2022-10-13T03:36:11;9.10;99.90
52381;DHT22;38310;52.796;6.942;2022-10-13T03:38:38;9.20;99.90
52381;DHT22;38310;52.796;6.942;2022-10-13T03:41:12;9.20;99.90
52381;DHT22;38310;52.796;6.942;2022-10-13T03:43:38;9.50;99.90
52381;DHT22;38310;52.796;6.942;2022-10-13T03:46:06;9.20;99.90
52381;DHT22;38310;52.796;6.942;2022-10-13T03:48:33;9.30;99.90
52381;DHT22;38310;52.796;6.942;2022-10-13T03:51:02;9.30;99.90
52381;DHT22;38310;52.796;6.942;2022-10-13T03:53:28;9.30;99.90
52381;DHT22;38310;52.796;6.942;2022-10-13T03:55:55;9.30;99.90
52381;DHT22;38310;52.796;6.942;2022-10-13T03:58:22;9.30;99.90
52381;DHT22;38310;52.796;6.942;2022-10-13T04:00:49;9.30;99.90
52381;DHT22;38310;52.796;6.942;2022-10-13T04:03:15;9.40;99.90
52381;DHT22;38310;52.796;6.942;2022-10-13T04:05:42;9.30;99.90
52381;DHT22;38310;52.796;6.942;2022-10-13T04:08:08;9.40;99.90
52381;DHT22;38310;52.796;6.942;2022-10-13T04:10:34;9.40;99.90
52381;DHT22;38310;52.796;6.942;2022-10-13T04:12:59;9.40;99.90
52381;DHT22;38310;52.796;6.942;2022-10-13T04:15:26;9.40;99.90
52381;DHT22;38310;52.796;6.942;2022-10-13T04:17:51;9.40;99.90
52381;DHT22;38310;52.796;6.942;2022-10-13T04:20:17;9.50;99.90
52381;DHT22;38310;52.796;6.942;2022-10-13T04:22:43;9.40;99.90
52381;DHT22;38310;52.796;6.942;2022-10-13T04:25:09;9.40;99.90
52381;DHT22;38310;52.796;6.942;2022-10-13T04:27:35;9.50;99.90
52381;DHT22;38310;52.796;6.942;2022-10-13T04:30:06;9.40;99.90
52381;DHT22;38310;52.796;6.942;2022-10-13T04:32:32;9.40;99.90
52381;DHT22;38310;52.796;6.942;2022-10-13T04:34:57;9.50;99.90
52381;DHT22;38310;52.796;6.942;2022-10-13T04:37:23;9.50;99.90
52381;DHT22;38310;52.796;6.942;2022-10-13T04:39:49;9.50;99.90
52381;DHT22;38310;52.796;6.942;2022-10-13T04:42:15;9.50;99.90
52381;DHT22;38310;52.796;6.942;2022-10-13T04:44:41;9.50;99.90
52381;DHT22;38310;52.796;6.942;2022-10-13T04:47:06;9.50;99.90
52381;DHT22;38310;52.796;6.942;2022-10-13T04:49:33;9.50;99.90
52381;DHT22;38310;52.796;6.942;2022-10-13T04:51:59;9.50;99.90
52381;DHT22;38310;52.796;6.942;2022-10-13T04:54:25;9.50;99.90
52381;DHT22;38310;52.796;6.942;2022-10-13T04:56:50;9.50;99.90
52381;DHT22;38310;52.796;6.942;2022-10-13T04:59:16;9.50;99.90
52381;DHT22;38310;52.796;6.942;2022-10-13T05:01:42;9.50;99.90
52381;DHT22;38310;52.796;6.942;2022-10-13T05:04:09;9.60;99.90
52381;DHT22;38310;52.796;6.942;2022-10-13T05:06:38;9.60;99.90
52381;DHT22;38310;52.796;6.942;2022-10-13T05:09:04;9.60;99.90
52381;DHT22;38310;52.796;6.942;2022-10-13T05:11:30;9.60;99.90
52381;DHT22;38310;52.796;6.942;2022-10-13T05:13:57;9.60;99.90
52381;DHT22;38310;52.796;6.942;2022-10-13T05:16:24;9.60;99.90
52381;DHT22;38310;52.796;6.942;2022-10-13T05:18:52;9.60;99.90
52381;DHT22;38310;52.796;6.942;2022-10-13T05:21:23;9.60;99.90
52381;DHT22;38310;52.796;6.942;2022-10-13T05:23:50;9.70;99.90
52381;DHT22;38310;52.796;6.942;2022-10-13T05:26:20;9.70;99.90
52381;DHT22;38310;52.796;6.942;2022-10-13T05:28:46;9.70;99.90
52381;DHT22;38310;52.796;6.942;2022-10-13T05:31:18;9.70;99.90
52381;DHT22;38310;52.796;6.942;2022-10-13T05:33:45;9.70;99.90
52381;DHT22;38310;52.796;6.942;2022-10-13T05:36:22;9.70;99.90
52381;DHT22;38310;52.796;6.942;2022-10-13T05:38:50;9.80;99.90
52381;DHT22;38310;52.796;6.942;2022-10-13T05:41:16;9.70;99.90
52381;DHT22;38310;52.796;6.942;2022-10-13T05:43:42;9.70;99.90
52381;DHT22;38310;52.796;6.942;2022-10-13T05:46:08;9.80;99.90
52381;DHT22;38310;52.796;6.942;2022-10-13T05:48:34;9.70;99.90
52381;DHT22;38310;52.796;6.942;2022-10-13T05:51:04;9.70;99.90
52381;DHT22;38310;52.796;6.942;2022-10-13T05:53:35;9.70;99.90
52381;DHT22;38310;52.796;6.942;2022-10-13T05:56:09;9.80;99.90
52381;DHT22;38310;52.796;6.942;2022-10-13T05:58:37;9.80;99.90
52381;DHT22;38310;52.796;6.942;2022-10-13T06:01:09;9.40;99.90
52381;DHT22;38310;52.796;6.942;2022-10-13T06:03:37;9.80;99.90
52381;DHT22;38310;52.796;6.942;2022-10-13T06:06:03;9.80;99.90
52381;DHT22;38310;52.796;6.942;2022-10-13T06:08:29;9.80;99.90
52381;DHT22;38310;52.796;6.942;2022-10-13T06:10:55;9.80;99.90
52381;DHT22;38310;52.796;6.942;2022-10-13T06:13:21;9.80;99.90
52381;DHT22;38310;52.796;6.942;2022-10-13T06:15:46;9.80;99.90
52381;DHT22;38310;52.796;6.942;2022-10-13T06:18:12;9.80;99.90
52381;DHT22;38310;52.796;6.942;2022-10-13T06:20:38;9.80;99.90
52381;DHT22;38310;52.796;6.942;2022-10-13T06:23:04;9.80;99.90
52381;DHT22;38310;52.796;6.942;2022-10-13T06:25:30;9.80;99.90
52381;DHT22;38310;52.796;6.942;2022-10-13T06:27:56;9.80;99.90
52381;DHT22;38310;52.796;6.942;2022-10-13T06:30:22;9.80;99.90
52381;DHT22;38310;52.796;6.942;2022-10-13T06:32:48;9.90;99.90
52381;DHT22;38310;52.796;6.942;2022-10-13T06:35:14;9.90;99.90
52381;DHT22;38310;52.796;6.942;2022-10-13T06:37:39;9.90;99.90
52381;DHT22;38310;52.796;6.942;2022-10-13T06:40:06;9.90;99.90
52381;DHT22;38310;52.796;6.942;2022-10-13T06:42:31;10.00;99.90
52381;DHT22;38310;52.796;6.942;2022-10-13T06:44:58;10.00;99.90
52381;DHT22;38310;52.796;6.942;2022-10-13T06:47:24;10.00;99.90
52381;DHT22;38310;52.796;6.942;2022-10-13T06:49:50;10.10;99.90
52381;DHT22;38310;52.796;6.942;2022-10-13T06:52:15;10.10;99.90
52381;DHT22;38310;52.796;6.942;2022-10-13T06:54:41;10.00;99.90
52381;DHT22;38310;52.796;6.942;2022-10-13T06:57:07;10.10;99.90
52381;DHT22;38310;52.796;6.942;2022-10-13T06:59:33;10.10;99.90
52381;DHT22;38310;52.796;6.942;2022-10-13T07:01:58;10.20;99.90
52381;DHT22;38310;52.796;6.942;2022-10-13T07:04:24;10.20;99.90
52381;DHT22;38310;52.796;6.942;2022-10-13T07:06:52;10.20;99.90
52381;DHT22;38310;52.796;6.942;2022-10-13T07:09:18;10.30;99.90
52381;DHT22;38310;52.796;6.942;2022-10-13T07:11:45;10.30;99.90
52381;DHT22;38310;52.796;6.942;2022-10-13T07:14:12;10.40;99.90
52381;DHT22;38310;52.796;6.942;2022-10-13T07:16:37;10.40;99.90
52381;DHT22;38310;52.796;6.942;2022-10-13T07:19:03;10.50;99.90
52381;DHT22;38310;52.796;6.942;2022-10-13T07:21:29;10.60;99.90
52381;DHT22;38310;52.796;6.942;2022-10-13T07:23:54;10.70;99.90
52381;DHT22;38310;52.796;6.942;2022-10-13T07:26:20;10.70;99.90
52381;DHT22;38310;52.796;6.942;2022-10-13T07:28:47;10.80;99.90
52381;DHT22;38310;52.796;6.942;2022-10-13T07:31:15;10.90;99.90
52381;DHT22;38310;52.796;6.942;2022-10-13T07:33:43;10.90;99.90
52381;DHT22;38310;52.796;6.942;2022-10-13T07:36:10;10.90;99.90
52381;DHT22;38310;52.796;6.942;2022-10-13T07:38:36;11.00;99.90
52381;DHT22;38310;52.796;6.942;2022-10-13T07:41:03;11.10;99.90
52381;DHT22;38310;52.796;6.942;2022-10-13T07:43:29;11.10;99.90
52381;DHT22;38310;52.796;6.942;2022-10-13T07:45:57;11.10;99.90
52381;DHT22;38310;52.796;6.942;2022-10-13T07:48:24;11.20;99.90
52381;DHT22;38310;52.796;6.942;2022-10-13T07:50:50;11.20;99.90
52381;DHT22;38310;52.796;6.942;2022-10-13T07:53:16;11.20;99.90
52381;DHT22;38310;52.796;6.942;2022-10-13T07:55:42;11.30;99.90
52381;DHT22;38310;52.796;6.942;2022-10-13T07:58:08;11.40;99.90
52381;DHT22;38310;52.796;6.942;2022-10-13T08:00:34;11.40;99.90
52381;DHT22;38310;52.796;6.942;2022-10-13T08:03:00;11.50;99.90
52381;DHT22;38310;52.796;6.942;2022-10-13T08:05:25;11.60;99.90
52381;DHT22;38310;52.796;6.942;2022-10-13T08:07:51;11.70;99.90
52381;DHT22;38310;52.796;6.942;2022-10-13T08:10:17;11.80;99.90
52381;DHT22;38310;52.796;6.942;2022-10-13T08:12:43;11.50;99.90
52381;DHT22;38310;52.796;6.942;2022-10-13T08:15:09;11.90;99.90
52381;DHT22;38310;52.796;6.942;2022-10-13T08:17:35;12.00;99.90
52381;DHT22;38310;52.796;6.942;2022-10-13T08:20:02;12.10;99.90
52381;DHT22;38310;52.796;6.942;2022-10-13T08:22:28;12.10;99.90
52381;DHT22;38310;52.796;6.942;2022-10-13T08:24:53;12.10;99.90
52381;DHT22;38310;52.796;6.942;2022-10-13T08:27:22;12.10;99.90
52381;DHT22;38310;52.796;6.942;2022-10-13T08:29:49;12.10;99.90
52381;DHT22;38310;52.796;6.942;2022-10-13T08:32:15;12.20;99.90
52381;DHT22;38310;52.796;6.942;2022-10-13T08:34:41;12.30;99.90
52381;DHT22;38310;52.796;6.942;2022-10-13T08:37:15;12.40;99.90
52381;DHT22;38310;52.796;6.942;2022-10-13T08:39:41;12.40;99.90
52381;DHT22;38310;52.796;6.942;2022-10-13T08:42:19;12.40;99.90
52381;DHT22;38310;52.796;6.942;2022-10-13T08:44:58;12.50;99.90
52381;DHT22;38310;52.796;6.942;2022-10-13T08:50:03;12.60;99.90
52381;DHT22;38310;52.796;6.942;2022-10-13T08:52:46;12.60;99.90
52381;DHT22;38310;52.796;6.942;2022-10-13T08:58:10;12.60;99.90
52381;DHT22;38310;52.796;6.942;2022-10-13T09:00:37;12.70;99.90
52381;DHT22;38310;52.796;6.942;2022-10-13T09:03:25;12.70;99.90
52381;DHT22;38310;52.796;6.942;2022-10-13T09:06:08;12.70;99.90
52381;DHT22;38310;52.796;6.942;2022-10-13T09:08:42;12.70;99.90
52381;DHT22;38310;52.796;6.942;2022-10-13T09:11:11;13.30;99.90
52381;DHT22;38310;52.796;6.942;2022-10-13T09:13:37;12.80;99.90
52381;DHT22;38310;52.796;6.942;2022-10-13T09:16:02;12.30;99.90
52381;DHT22;38310;52.796;6.942;2022-10-13T09:18:30;12.80;99.90
52381;DHT22;38310;52.796;6.942;2022-10-13T09:21:20;12.90;99.90
52381;DHT22;38310;52.796;6.942;2022-10-13T09:23:51;12.90;99.90
52381;DHT22;38310;52.796;6.942;2022-10-13T09:26:21;13.00;99.90
52381;DHT22;38310;52.796;6.942;2022-10-13T09:28:49;13.00;99.90
52381;DHT22;38310;52.796;6.942;2022-10-13T09:31:26;13.00;99.90
52381;DHT22;38310;52.796;6.942;2022-10-13T09:34:00;13.10;99.90
52381;DHT22;38310;52.796;6.942;2022-10-13T09:36:27;13.70;99.90
52381;DHT22;38310;52.796;6.942;2022-10-13T09:39:12;13.20;99.90
52381;DHT22;38310;52.796;6.942;2022-10-13T09:41:39;13.30;99.90
52381;DHT22;38310;52.796;6.942;2022-10-13T09:44:15;13.30;99.90
52381;DHT22;38310;52.796;6.942;2022-10-13T09:46:54;13.30;99.90
52381;DHT22;38310;52.796;6.942;2022-10-13T09:52:04;13.50;99.90
52381;DHT22;38310;52.796;6.942;2022-10-13T10:00:10;13.70;99.90
52381;DHT22;38310;52.796;6.942;2022-10-13T10:07:50;14.10;99.90
52381;DHT22;38310;52.796;6.942;2022-10-13T10:10:35;14.10;99.90
52381;DHT22;38310;52.796;6.942;2022-10-13T10:13:04;14.20;99.90
52381;DHT22;38310;52.796;6.942;2022-10-13T10:27:02;14.30;99.90
52381;DHT22;38310;52.796;6.942;2022-10-13T10:29:45;14.30;99.90
52381;DHT22;38310;52.796;6.942;2022-10-13T10:34:57;14.30;99.90
52381;DHT22;38310;52.796;6.942;2022-10-13T10:37:30;14.20;99.90
52381;DHT22;38310;52.796;6.942;2022-10-13T10:43:30;14.40;99.90
52381;DHT22;38310;52.796;6.942;2022-10-13T10:45:58;14.40;99.90
52381;DHT22;38310;52.796;6.942;2022-10-13T10:48:45;14.50;99.90
52381;DHT22;38310;52.796;6.942;2022-10-13T10:51:12;14.70;99.90
52381;DHT22;38310;52.796;6.942;2022-10-13T10:56:36;14.80;99.90
52381;DHT22;38310;52.796;6.942;2022-10-13T11:06:57;14.30;99.90
52381;DHT22;38310;52.796;6.942;2022-10-13T11:17:38;14.90;99.90
52381;DHT22;38310;52.796;6.942;2022-10-13T11:25:43;14.70;99.90
52381;DHT22;38310;52.796;6.942;2022-10-13T11:30:52;14.70;99.90
52381;DHT22;38310;52.796;6.942;2022-10-13T11:33:52;14.70;99.90
52381;DHT22;38310;52.796;6.942;2022-10-13T11:36:45;15.10;99.90
52381;DHT22;38310;52.796;6.942;2022-10-13T11:44:52;14.50;99.90
52381;DHT22;38310;52.796;6.942;2022-10-13T11:50:21;14.40;99.90
52381;DHT22;38310;52.796;6.942;2022-10-13T11:52:56;14.50;99.90
52381;DHT22;38310;52.796;6.942;2022-10-13T11:55:32;14.30;99.90
52381;DHT22;38310;52.796;6.942;2022-10-13T11:58:28;14.30;99.90
52381;DHT22;38310;52.796;6.942;2022-10-13T12:01:14;14.30;99.90
52381;DHT22;38310;52.796;6.942;2022-10-13T12:03:42;14.30;99.90
52381;DHT22;38310;52.796;6.942;2022-10-13T12:06:24;14.20;99.90
52381;DHT22;38310;52.796;6.942;2022-10-13T12:08:56;14.30;99.90
52381;DHT22;38310;52.796;6.942;2022-10-13T12:11:31;14.20;99.90
52381;DHT22;38310;52.796;6.942;2022-10-13T12:13:59;14.20;99.90
52381;DHT22;38310;52.796;6.942;2022-10-13T12:16:26;14.10;99.90
52381;DHT22;38310;52.796;6.942;2022-10-13T12:18:52;14.10;99.90
52381;DHT22;38310;52.796;6.942;2022-10-13T12:21:20;14.10;99.90
52381;DHT22;38310;52.796;6.942;2022-10-13T12:23:48;14.10;99.90
52381;DHT22;38310;52.796;6.942;2022-10-13T12:26:20;14.20;99.90
52381;DHT22;38310;52.796;6.942;2022-10-13T12:31:26;14.00;99.90
52381;DHT22;38310;52.796;6.942;2022-10-13T12:33:57;14.10;99.90
52381;DHT22;38310;52.796;6.942;2022-10-13T12:36:31;14.10;99.90
52381;DHT22;38310;52.796;6.942;2022-10-13T12:39:09;14.00;99.90
52381;DHT22;38310;52.796;6.942;2022-10-13T12:41:42;14.00;99.90
52381;DHT22;38310;52.796;6.942;2022-10-13T12:44:14;14.00;99.90
52381;DHT22;38310;52.796;6.942;2022-10-13T12:46:47;14.00;99.90
52381;DHT22;38310;52.796;6.942;2022-10-13T12:49:14;13.90;99.90
52381;DHT22;38310;52.796;6.942;2022-10-13T12:51:42;13.90;99.90
52381;DHT22;38310;52.796;6.942;2022-10-13T12:54:21;13.90;99.90
52381;DHT22;38310;52.796;6.942;2022-10-13T12:56:48;13.90;99.90
52381;DHT22;38310;52.796;6.942;2022-10-13T12:59:19;13.90;99.90
52381;DHT22;38310;52.796;6.942;2022-10-13T13:02:00;13.90;99.90
52381;DHT22;38310;52.796;6.942;2022-10-13T13:04:37;13.90;99.90
52381;DHT22;38310;52.796;6.942;2022-10-13T13:07:05;13.90;99.90
52381;DHT22;38310;52.796;6.942;2022-10-13T13:09:34;13.90;99.90
52381;DHT22;38310;52.796;6.942;2022-10-13T13:19:43;13.80;99.90
52381;DHT22;38310;52.796;6.942;2022-10-13T13:22:09;13.80;99.90
52381;DHT22;38310;52.796;6.942;2022-10-13T13:24:35;13.80;99.90
52381;DHT22;38310;52.796;6.942;2022-10-13T13:27:26;13.80;99.90
52381;DHT22;38310;52.796;6.942;2022-10-13T13:29:53;13.80;99.90
52381;DHT22;38310;52.796;6.942;2022-10-13T13:32:21;13.80;99.90
52381;DHT22;38310;52.796;6.942;2022-10-13T13:34:47;13.80;99.90
52381;DHT22;38310;52.796;6.942;2022-10-13T13:37:23;13.70;99.90
52381;DHT22;38310;52.796;6.942;2022-10-13T13:39:50;13.70;99.90
52381;DHT22;38310;52.796;6.942;2022-10-13T13:42:15;13.70;99.90
52381;DHT22;38310;52.796;6.942;2022-10-13T13:44:41;13.70;99.90
52381;DHT22;38310;52.796;6.942;2022-10-13T13:47:27;13.40;99.90
52381;DHT22;38310;52.796;6.942;2022-10-13T13:49:57;13.70;99.90
52381;DHT22;38310;52.796;6.942;2022-10-13T13:52:24;13.70;99.90
52381;DHT22;38310;52.796;6.942;2022-10-13T13:54:50;13.70;99.90
52381;DHT22;38310;52.796;6.942;2022-10-13T13:57:17;13.70;99.90
52381;DHT22;38310;52.796;6.942;2022-10-13T13:59:43;13.70;99.90
52381;DHT22;38310;52.796;6.942;2022-10-13T14:02:18;13.70;99.90
52381;DHT22;38310;52.796;6.942;2022-10-13T14:04:44;13.70;99.90
52381;DHT22;38310;52.796;6.942;2022-10-13T14:07:11;13.70;99.90
52381;DHT22;38310;52.796;6.942;2022-10-13T14:09:37;13.80;99.90
52381;DHT22;38310;52.796;6.942;2022-10-13T14:12:03;13.80;99.90
52381;DHT22;38310;52.796;6.942;2022-10-13T14:14:30;13.90;99.90
52381;DHT22;38310;52.796;6.942;2022-10-13T14:16:57;13.90;99.90
52381;DHT22;38310;52.796;6.942;2022-10-13T14:19:23;13.90;99.90
52381;DHT22;38310;52.796;6.942;2022-10-13T14:21:49;14.00;99.90
52381;DHT22;38310;52.796;6.942;2022-10-13T14:24:15;14.00;99.90
52381;DHT22;38310;52.796;6.942;2022-10-13T14:26:41;14.00;99.90
52381;DHT22;38310;52.796;6.942;2022-10-13T14:29:06;14.10;99.90
52381;DHT22;38310;52.796;6.942;2022-10-13T14:31:33;14.10;99.90
52381;DHT22;38310;52.796;6.942;2022-10-13T14:33:58;14.10;99.90
52381;DHT22;38310;52.796;6.942;2022-10-13T14:36:24;14.20;99.90
52381;DHT22;38310;52.796;6.942;2022-10-13T14:38:50;14.20;99.90
52381;DHT22;38310;52.796;6.942;2022-10-13T14:41:17;14.20;99.90
52381;DHT22;38310;52.796;6.942;2022-10-13T14:43:43;14.20;99.90
52381;DHT22;38310;52.796;6.942;2022-10-13T14:46:09;14.20;99.90
52381;DHT22;38310;52.796;6.942;2022-10-13T14:48:36;14.20;99.90
52381;DHT22;38310;52.796;6.942;2022-10-13T14:51:06;14.20;99.90
52381;DHT22;38310;52.796;6.942;2022-10-13T14:53:38;14.20;99.90
52381;DHT22;38310;52.796;6.942;2022-10-13T14:56:21;14.20;99.90
52381;DHT22;38310;52.796;6.942;2022-10-13T14:58:47;14.20;99.90
52381;DHT22;38310;52.796;6.942;2022-10-13T15:01:14;14.20;99.90
52381;DHT22;38310;52.796;6.942;2022-10-13T15:03:40;14.10;99.90
52381;DHT22;38310;52.796;6.942;2022-10-13T15:06:11;14.10;99.90
52381;DHT22;38310;52.796;6.942;2022-10-13T15:08:37;14.20;99.90
52381;DHT22;38310;52.796;6.942;2022-10-13T15:11:03;14.10;99.90
52381;DHT22;38310;52.796;6.942;2022-10-13T15:13:29;14.10;99.90
52381;DHT22;38310;52.796;6.942;2022-10-13T15:15:56;14.10;99.90
52381;DHT22;38310;52.796;6.942;2022-10-13T15:18:32;14.00;99.90
52381;DHT22;38310;52.796;6.942;2022-10-13T15:20:58;14.00;99.90
52381;DHT22;38310;52.796;6.942;2022-10-13T15:23:24;14.00;99.90
52381;DHT22;38310;52.796;6.942;2022-10-13T15:25:55;13.90;99.90
52381;DHT22;38310;52.796;6.942;2022-10-13T15:28:23;13.90;99.90
52381;DHT22;38310;52.796;6.942;2022-10-13T15:30:49;14.10;99.90
52381;DHT22;38310;52.796;6.942;2022-10-13T15:33:15;13.80;99.90
52381;DHT22;38310;52.796;6.942;2022-10-13T15:35:41;13.80;99.90
52381;DHT22;38310;52.796;6.942;2022-10-13T15:38:07;13.70;99.90
52381;DHT22;38310;52.796;6.942;2022-10-13T15:40:32;13.70;99.90
52381;DHT22;38310;52.796;6.942;2022-10-13T15:42:59;13.70;99.90
52381;DHT22;38310;52.796;6.942;2022-10-13T15:45:25;13.60;99.90
52381;DHT22;38310;52.796;6.942;2022-10-13T15:47:51;13.60;99.90
52381;DHT22;38310;52.796;6.942;2022-10-13T15:50:17;13.60;99.90
52381;DHT22;38310;52.796;6.942;2022-10-13T15:52:43;13.60;99.90
52381;DHT22;38310;52.796;6.942;2022-10-13T15:55:10;13.60;99.90
52381;DHT22;38310;52.796;6.942;2022-10-13T15:57:37;13.50;99.90
52381;DHT22;38310;52.796;6.942;2022-10-13T16:00:07;13.50;99.90
52381;DHT22;38310;52.796;6.942;2022-10-13T16:02:33;13.50;99.90
52381;DHT22;38310;52.796;6.942;2022-10-13T16:04:59;13.40;99.90
52381;DHT22;38310;52.796;6.942;2022-10-13T16:07:30;13.40;99.90
52381;DHT22;38310;52.796;6.942;2022-10-13T16:09:56;13.50;99.90
52381;DHT22;38310;52.796;6.942;2022-10-13T16:12:21;13.40;99.90
52381;DHT22;38310;52.796;6.942;2022-10-13T16:14:49;13.40;99.90
52381;DHT22;38310;52.796;6.942;2022-10-13T16:17:15;13.40;99.90
52381;DHT22;38310;52.796;6.942;2022-10-13T16:19:40;13.40;99.90
52381;DHT22;38310;52.796;6.942;2022-10-13T16:22:06;13.40;99.90
52381;DHT22;38310;52.796;6.942;2022-10-13T16:24:32;13.40;99.90
52381;DHT22;38310;52.796;6.942;2022-10-13T16:27:02;13.40;99.90
52381;DHT22;38310;52.796;6.942;2022-10-13T16:29:28;13.30;99.90
52381;DHT22;38310;52.796;6.942;2022-10-13T16:31:53;13.40;99.90
52381;DHT22;38310;52.796;6.942;2022-10-13T16:34:19;13.30;99.90
52381;DHT22;38310;52.796;6.942;2022-10-13T16:36:45;13.30;99.90
52381;DHT22;38310;52.796;6.942;2022-10-13T16:39:11;13.30;99.90
52381;DHT22;38310;52.796;6.942;2022-10-13T16:41:37;13.20;99.90
52381;DHT22;38310;52.796;6.942;2022-10-13T16:44:03;13.20;99.90
52381;DHT22;38310;52.796;6.942;2022-10-13T16:46:29;13.20;99.90
52381;DHT22;38310;52.796;6.942;2022-10-13T16:48:57;13.10;99.90
52381;DHT22;38310;52.796;6.942;2022-10-13T16:51:24;13.10;99.90
52381;DHT22;38310;52.796;6.942;2022-10-13T16:53:56;13.10;99.90
52381;DHT22;38310;52.796;6.942;2022-10-13T16:56:23;13.00;99.90
52381;DHT22;38310;52.796;6.942;2022-10-13T16:59:01;13.00;99.90
52381;DHT22;38310;52.796;6.942;2022-10-13T17:01:28;13.00;99.90
52381;DHT22;38310;52.796;6.942;2022-10-13T17:03:54;13.00;99.90
52381;DHT22;38310;52.796;6.942;2022-10-13T17:06:22;12.90;99.90
52381;DHT22;38310;52.796;6.942;2022-10-13T17:08:48;12.90;99.90
52381;DHT22;38310;52.796;6.942;2022-10-13T17:11:17;12.90;99.90
52381;DHT22;38310;52.796;6.942;2022-10-13T17:13:43;12.90;99.90
52381;DHT22;38310;52.796;6.942;2022-10-13T17:16:09;12.90;99.90
52381;DHT22;38310;52.796;6.942;2022-10-13T17:18:35;12.90;99.90
52381;DHT22;38310;52.796;6.942;2022-10-13T17:21:03;12.80;99.90
52381;DHT22;38310;52.796;6.942;2022-10-13T17:23:30;12.80;99.90
52381;DHT22;38310;52.796;6.942;2022-10-13T17:26:01;12.80;99.90
52381;DHT22;38310;52.796;6.942;2022-10-13T17:28:27;12.80;99.90